Continental, Ohio
Current Conditions -  °F | °C
As of 1:53 PM on Friday 28 Nov 2014 (Local Time) from KDFI Reporting Station
Light Snow Light Snow  
Wind Chill: 17°   Ceiling: 2200
Heat Index: 27°   Visibility: 5mi
Dew Point: 20°   Wind: 10mph
Humidity: 75%   Direction: 210°SSW
Pressure: 30.23"   Gusts: NA
Location:  41.1°N, 84.27°W
Report Text: KDFI 281853Z AUTO 21009KT 5SM -SN BKN022 BKN028 OVC090 M03/M07 A3023 RMK AO2 SLP247 P0000 T10281067
Loading
Personal Weather Stations






























Interactive Weather Map New forecast layout! Learn more

10-Day Weather Forecast

Advertisements
Track Severe Weather on mobile